Time;durP1;ratioP1;P1;durP2;ratioP2;P2;SDS_P1;SDS_P2;PMS_P1;PMS_P2;Temp;Humidity;BMP_temperature;BMP_pressure;BME280_temperature;BME280_humidity;BME280_pressure;Samples;Min_cycle;Max_cycle;Signal;HPM_P1;HPM_P2
2023/09/25 00:01:34;;;;;;;7.80;3.45;;;11.70;99.90;;;;;;7366591;19;20014;-62
2023/09/25 00:04:00;;;;;;;6.68;3.60;;;11.80;99.90;;;;;;7369487;19;20370;-62
2023/09/25 00:06:27;;;;;;;6.10;3.25;;;11.80;99.90;;;;;;7373571;19;20022;-62
2023/09/25 00:08:53;;;;;;;9.57;3.88;;;11.90;99.90;;;;;;7370171;19;20015;-62
2023/09/25 00:11:23;;;;;;;5.65;3.38;;;12.00;99.90;;;;;;7369962;19;20041;-66
2023/09/25 00:13:49;;;;;;;7.22;3.92;;;11.90;99.90;;;;;;7368325;19;20015;-65
2023/09/25 00:16:18;;;;;;;6.07;3.28;;;12.00;99.90;;;;;;7373008;19;20022;-65
2023/09/25 00:18:45;;;;;;;4.03;3.15;;;12.00;99.90;;;;;;7370022;19;20464;-65
2023/09/25 00:21:11;;;;;;;5.78;3.53;;;12.00;99.90;;;;;;7370839;19;20503;-65
2023/09/25 00:23:38;;;;;;;6.57;3.90;;;12.00;99.90;;;;;;7369994;19;21286;-64
2023/09/25 00:26:08;;;;;;;6.32;3.33;;;12.00;99.90;;;;;;7370252;19;20044;-65
2023/09/25 00:28:39;;;;;;;8.10;5.00;;;12.00;99.90;;;;;;7372408;19;20493;-65
2023/09/25 00:31:05;;;;;;;7.30;3.65;;;12.00;99.90;;;;;;7369699;19;20485;-66
2023/09/25 00:33:31;;;;;;;6.28;3.47;;;12.00;99.90;;;;;;7375202;19;20018;-66
2023/09/25 00:35:57;;;;;;;7.82;4.03;;;12.00;99.90;;;;;;7369574;19;20082;-65
2023/09/25 00:38:24;;;;;;;6.10;3.83;;;11.90;99.90;;;;;;7372347;19;20417;-65
2023/09/25 00:40:50;;;;;;;5.93;4.13;;;11.90;99.90;;;;;;7364105;19;20510;-65
2023/09/25 00:43:16;;;;;;;6.82;4.15;;;12.00;99.90;;;;;;7367464;19;20468;-65
2023/09/25 00:45:45;;;;;;;6.78;3.83;;;11.90;99.90;;;;;;7368270;19;20635;-65
2023/09/25 00:48:28;;;;;;;7.22;4.38;;;11.90;99.90;;;;;;7358959;19;20029;-66
2023/09/25 00:50:57;;;;;;;5.68;4.07;;;11.80;99.90;;;;;;7364703;19;20036;-65
2023/09/25 00:53:26;;;;;;;6.22;3.88;;;11.80;99.90;;;;;;7371843;19;20018;-65
2023/09/25 00:56:12;;;;;;;8.27;4.05;;;11.80;99.90;;;;;;7366641;19;20018;-65
2023/09/25 00:58:39;;;;;;;6.63;4.05;;;11.70;99.90;;;;;;7369294;19;20511;-65
2023/09/25 01:01:09;;;;;;;5.85;4.00;;;11.70;99.90;;;;;;7367601;19;20015;-65
2023/09/25 01:03:35;;;;;;;4.93;3.80;;;11.60;99.90;;;;;;7367319;19;20602;-65
2023/09/25 01:06:03;;;;;;;5.40;3.78;;;11.50;99.90;;;;;;7368489;19;20521;-65
2023/09/25 01:08:31;;;;;;;8.68;4.38;;;11.50;99.90;;;;;;7361057;19;20019;-65
2023/09/25 01:10:59;;;;;;;5.30;4.57;;;11.50;99.90;;;;;;7369920;19;20454;-65
2023/09/25 01:13:26;;;;;;;6.35;4.40;;;11.50;99.90;;;;;;7371923;19;20380;-65
2023/09/25 01:15:52;;;;;;;6.35;4.45;;;11.50;99.90;;;;;;7365737;19;20018;-63
2023/09/25 01:18:18;;;;;;;6.60;4.88;;;11.50;99.90;;;;;;7367166;19;20053;-61
2023/09/25 01:20:45;;;;;;;5.35;4.55;;;11.40;99.90;;;;;;7366927;19;20023;-61
2023/09/25 01:23:11;;;;;;;7.18;4.68;;;11.30;99.90;;;;;;7370932;19;20085;-62
2023/09/25 01:25:37;;;;;;;5.30;4.38;;;11.30;99.90;;;;;;7368169;19;20022;-62
2023/09/25 01:28:03;;;;;;;7.35;5.50;;;11.30;99.90;;;;;;7367054;19;20024;-62
2023/09/25 01:30:31;;;;;;;6.43;4.80;;;11.30;99.90;;;;;;7364490;19;20504;-62
2023/09/25 01:32:57;;;;;;;6.03;4.65;;;11.30;99.90;;;;;;7369257;19;20022;-62
2023/09/25 01:35:25;;;;;;;6.00;4.43;;;11.30;99.90;;;;;;7368778;19;20070;-61
2023/09/25 01:38:05;;;;;;;7.20;5.13;;;11.30;99.90;;;;;;7362922;19;20018;-62
2023/09/25 01:40:32;;;;;;;5.78;5.07;;;11.30;99.90;;;;;;7368270;19;20026;-65
2023/09/25 01:42:59;;;;;;;7.45;4.72;;;11.20;99.90;;;;;;7363614;19;20489;-65
2023/09/25 01:45:25;;;;;;;6.80;5.15;;;11.10;99.90;;;;;;7366840;19;20938;-64
2023/09/25 01:47:53;;;;;;;6.05;4.90;;;11.20;99.90;;;;;;7366552;19;20402;-65
2023/09/25 01:50:22;;;;;;;7.15;5.07;;;11.20;99.90;;;;;;7367208;19;20018;-65
2023/09/25 01:52:52;;;;;;;7.28;4.90;;;11.10;99.90;;;;;;7368909;19;20019;-65
2023/09/25 01:55:19;;;;;;;7.97;5.30;;;11.10;99.90;;;;;;7368189;19;20070;-65
2023/09/25 01:57:45;;;;;;;7.88;5.35;;;11.20;99.90;;;;;;7364988;19;20022;-64
2023/09/25 02:00:12;;;;;;;8.45;4.97;;;11.20;99.90;;;;;;7367224;19;20538;-65
2023/09/25 02:02:41;;;;;;;8.30;4.88;;;11.10;99.90;;;;;;7362873;19;20018;-64
2023/09/25 02:05:08;;;;;;;7.75;5.15;;;11.20;99.90;;;;;;7367301;19;20029;-62
2023/09/25 02:07:34;;;;;;;7.63;4.45;;;11.20;99.90;;;;;;7366343;19;20022;-62
2023/09/25 02:10:00;;;;;;;7.85;5.18;;;11.10;99.90;;;;;;7365467;19;20100;-61
2023/09/25 02:12:27;;;;;;;6.47;5.25;;;11.10;99.90;;;;;;7366426;19;20031;-61
2023/09/25 02:14:58;;;;;;;9.18;4.95;;;11.10;99.90;;;;;;7377361;19;20018;-61
2023/09/25 02:17:24;;;;;;;7.13;4.90;;;11.10;99.90;;;;;;7373376;19;20021;-61
2023/09/25 02:19:52;;;;;;;6.78;5.35;;;11.10;99.90;;;;;;7373795;19;20015;-61
2023/09/25 02:22:18;;;;;;;7.53;5.00;;;11.10;99.90;;;;;;7373366;19;20029;-61
2023/09/25 02:24:45;;;;;;;5.45;4.70;;;11.10;99.90;;;;;;7371521;19;20377;-61
2023/09/25 02:27:11;;;;;;;6.88;5.10;;;11.10;99.90;;;;;;7375951;19;20025;-61
2023/09/25 02:29:37;;;;;;;7.75;4.35;;;11.20;99.90;;;;;;7375972;19;20509;-62
2023/09/25 02:32:03;;;;;;;5.60;4.93;;;11.20;99.90;;;;;;7377792;19;20019;-62
2023/09/25 02:34:30;;;;;;;7.05;5.07;;;11.20;99.90;;;;;;7377251;19;20066;-64
2023/09/25 02:37:16;;;;;;;6.72;4.72;;;11.20;99.90;;;;;;7373351;19;20572;-61
2023/09/25 02:39:42;;;;;;;6.38;4.65;;;11.20;99.90;;;;;;7373171;19;20377;-61
2023/09/25 02:42:09;;;;;;;6.45;5.47;;;11.20;99.90;;;;;;7371040;19;20619;-61
2023/09/25 02:44:35;;;;;;;8.15;5.03;;;11.20;99.90;;;;;;7368382;19;20019;-64
2023/09/25 02:47:21;;;;;;;7.60;5.85;;;11.10;99.90;;;;;;7372831;19;20025;-61
2023/09/25 02:49:48;;;;;;;6.68;5.15;;;11.10;99.90;;;;;;7374540;19;20121;-62
2023/09/25 02:52:14;;;;;;;8.07;5.28;;;11.20;99.90;;;;;;7371281;19;20018;-61
2023/09/25 02:54:40;;;;;;;6.93;4.93;;;11.20;99.90;;;;;;7372342;19;20675;-64
2023/09/25 02:57:07;;;;;;;7.55;5.40;;;11.20;99.90;;;;;;7370137;19;20081;-64
2023/09/25 02:59:34;;;;;;;7.15;5.45;;;11.20;99.90;;;;;;7367562;19;20023;-64
2023/09/25 03:02:02;;;;;;;6.75;4.97;;;11.10;99.90;;;;;;7367860;19;20032;-64
2023/09/25 03:04:28;;;;;;;6.97;4.97;;;11.20;99.90;;;;;;7371151;19;20057;-64
2023/09/25 03:06:56;;;;;;;7.70;5.25;;;11.20;99.90;;;;;;7370669;19;20805;-65
2023/09/25 03:09:22;;;;;;;6.07;5.22;;;11.20;99.90;;;;;;7367133;19;20018;-65
2023/09/25 03:11:49;;;;;;;7.07;5.22;;;11.20;99.90;;;;;;7369956;19;20508;-65
2023/09/25 03:14:15;;;;;;;7.28;5.45;;;11.20;99.90;;;;;;7365223;19;20521;-65
2023/09/25 03:16:41;;;;;;;6.70;5.30;;;11.20;99.90;;;;;;7370211;19;20014;-65
2023/09/25 03:19:08;;;;;;;6.25;5.20;;;11.20;99.90;;;;;;7369291;19;20019;-65
2023/09/25 03:21:34;;;;;;;9.15;5.55;;;11.20;99.90;;;;;;7373837;19;20481;-65
2023/09/25 03:24:00;;;;;;;7.65;5.60;;;11.20;99.90;;;;;;7371042;19;20025;-65
2023/09/25 03:26:27;;;;;;;5.80;5.15;;;11.20;99.90;;;;;;7372457;19;20018;-65
2023/09/25 03:28:53;;;;;;;6.38;5.35;;;11.20;99.90;;;;;;7367963;19;20444;-65
2023/09/25 03:31:19;;;;;;;6.60;5.20;;;11.20;99.90;;;;;;7370417;19;20101;-65
2023/09/25 03:33:46;;;;;;;8.00;5.22;;;11.20;99.90;;;;;;7366435;19;20022;-64
2023/09/25 03:36:13;;;;;;;5.85;4.93;;;11.20;99.90;;;;;;7371222;19;20025;-64
2023/09/25 03:38:39;;;;;;;6.43;5.10;;;11.20;99.90;;;;;;7368774;19;20022;-64
2023/09/25 03:41:06;;;;;;;9.07;5.25;;;11.20;99.90;;;;;;7374501;19;20029;-67
2023/09/25 03:43:32;;;;;;;6.32;5.10;;;11.20;99.90;;;;;;7367820;19;20528;-66
2023/09/25 03:46:00;;;;;;;6.95;5.03;;;11.20;99.90;;;;;;7369523;19;20576;-65
2023/09/25 03:48:26;;;;;;;6.30;5.07;;;11.30;99.90;;;;;;7370443;19;20412;-65
2023/09/25 03:50:53;;;;;;;7.82;5.05;;;11.30;99.90;;;;;;7369272;19;20025;-65
2023/09/25 03:53:19;;;;;;;7.30;5.10;;;11.30;99.90;;;;;;7367380;19;20015;-64
2023/09/25 03:55:45;;;;;;;6.50;4.90;;;11.30;99.90;;;;;;7371187;19;20066;-65
2023/09/25 03:58:12;;;;;;;6.75;4.35;;;11.30;99.90;;;;;;7366786;19;20032;-65
2023/09/25 04:00:38;;;;;;;6.63;4.97;;;11.30;99.90;;;;;;7368345;19;20014;-64
2023/09/25 04:03:04;;;;;;;9.48;5.25;;;11.30;99.90;;;;;;7366913;19;20029;-65
2023/09/25 04:05:33;;;;;;;7.68;5.45;;;11.30;99.90;;;;;;7371602;19;20521;-65
2023/09/25 04:08:00;;;;;;;5.85;5.00;;;11.30;99.90;;;;;;7366117;19;20049;-65
2023/09/25 04:10:29;;;;;;;5.85;5.10;;;11.30;99.90;;;;;;7367175;19;20456;-65
2023/09/25 04:12:56;;;;;;;6.97;4.93;;;11.30;99.90;;;;;;7368339;19;20014;-65
2023/09/25 04:15:24;;;;;;;7.93;5.47;;;11.30;99.90;;;;;;7366972;19;20021;-64
2023/09/25 04:18:10;;;;;;;8.00;5.45;;;11.30;99.90;;;;;;7366316;19;20069;-66
2023/09/25 04:20:38;;;;;;;7.35;4.93;;;11.40;99.90;;;;;;7369607;19;20025;-65
2023/09/25 04:23:04;;;;;;;5.88;5.18;;;11.30;99.90;;;;;;7363454;19;20849;-65
2023/09/25 04:25:31;;;;;;;8.25;5.35;;;11.30;99.90;;;;;;7368893;19;20041;-65
2023/09/25 04:27:57;;;;;;;6.45;5.05;;;11.30;99.90;;;;;;7368840;19;20018;-66
2023/09/25 04:30:24;;;;;;;6.38;4.88;;;11.30;99.90;;;;;;7367445;19;20018;-65
2023/09/25 04:32:54;;;;;;;6.57;5.53;;;11.30;99.90;;;;;;7372239;19;20043;-65
2023/09/25 04:35:22;;;;;;;7.45;5.00;;;11.20;99.90;;;;;;7368334;19;20090;-64
2023/09/25 04:37:48;;;;;;;6.13;4.90;;;11.20;99.90;;;;;;7370435;19;20019;-64
2023/09/25 04:40:22;;;;;;;6.88;5.10;;;11.20;99.90;;;;;;7367984;19;20021;-65
2023/09/25 04:42:50;;;;;;;7.00;4.75;;;11.20;99.90;;;;;;7362744;19;20113;-64
2023/09/25 04:45:18;;;;;;;6.75;5.90;;;11.20;99.90;;;;;;7366587;19;20014;-66
2023/09/25 04:47:51;;;;;;;4.97;4.32;;;11.20;99.90;;;;;;7367902;19;20022;-62
2023/09/25 04:50:22;;;;;;;6.00;5.30;;;11.20;99.90;;;;;;7366064;19;20487;-61
2023/09/25 04:52:49;;;;;;;9.38;5.05;;;11.20;99.90;;;;;;7368304;19;20018;-62
2023/09/25 04:55:15;;;;;;;6.72;5.03;;;11.30;99.90;;;;;;7363716;19;20022;-62
2023/09/25 04:57:43;;;;;;;7.82;4.63;;;11.20;99.90;;;;;;7366292;19;20102;-61
2023/09/25 05:02:46;;;;;;;6.90;4.78;;;11.20;99.90;;;;;;7366149;19;20348;-65
2023/09/25 05:05:13;;;;;;;6.88;4.70;;;11.20;99.90;;;;;;7369387;19;20078;-65
2023/09/25 05:07:41;;;;;;;6.35;4.15;;;11.20;99.90;;;;;;7369144;19;20877;-65
2023/09/25 05:10:10;;;;;;;9.30;4.35;;;11.30;99.90;;;;;;7363821;19;21450;-66
2023/09/25 05:12:38;;;;;;;6.70;4.20;;;11.30;99.90;;;;;;7367033;19;20078;-66
2023/09/25 05:15:07;;;;;;;6.43;4.15;;;11.30;99.90;;;;;;7366721;19;21167;-65
2023/09/25 05:17:37;;;;;;;6.40;4.18;;;11.40;99.90;;;;;;7367341;19;20022;-66
2023/09/25 05:20:10;;;;;;;6.72;3.97;;;11.40;99.90;;;;;;7367008;19;20752;-65
2023/09/25 05:22:41;;;;;;;5.07;3.92;;;11.40;99.90;;;;;;7367903;19;20018;-65
2023/09/25 05:25:09;;;;;;;6.10;4.25;;;11.50;99.90;;;;;;7366400;19;20018;-65
2023/09/25 05:27:36;;;;;;;6.07;3.95;;;11.50;99.90;;;;;;7366019;19;20025;-61
2023/09/25 05:30:05;;;;;;;7.68;4.30;;;11.50;99.90;;;;;;7365177;19;20501;-63
2023/09/25 05:32:33;;;;;;;7.55;3.78;;;11.60;99.90;;;;;;7367332;19;20474;-62
2023/09/25 05:35:00;;;;;;;7.60;3.88;;;11.60;99.90;;;;;;7363944;19;20018;-62
2023/09/25 05:37:26;;;;;;;7.55;4.15;;;11.60;99.90;;;;;;7370777;19;20019;-65
2023/09/25 05:39:53;;;;;;;4.95;3.75;;;11.60;99.90;;;;;;7367928;19;20440;-65
2023/09/25 05:42:19;;;;;;;5.53;3.70;;;11.60;99.90;;;;;;7372471;19;20015;-64
2023/09/25 05:44:45;;;;;;;6.80;3.80;;;11.70;99.90;;;;;;7367878;19;20022;-65
2023/09/25 05:47:12;;;;;;;7.13;4.00;;;11.70;99.90;;;;;;7370669;19;20013;-65
2023/09/25 05:49:38;;;;;;;6.18;3.90;;;11.70;99.90;;;;;;7367236;19;20663;-62
2023/09/25 05:52:04;;;;;;;6.78;3.42;;;11.80;99.90;;;;;;7373329;19;20353;-65
2023/09/25 05:54:31;;;;;;;5.18;3.83;;;11.80;99.90;;;;;;7367259;19;20185;-62
2023/09/25 05:56:57;;;;;;;4.45;3.90;;;11.90;99.90;;;;;;7371286;19;20021;-62
2023/09/25 05:59:24;;;;;;;6.65;4.05;;;11.90;99.90;;;;;;7368052;19;20023;-62
2023/09/25 06:01:50;;;;;;;7.88;4.25;;;12.00;99.90;;;;;;7370148;19;20014;-62
2023/09/25 06:04:17;;;;;;;6.55;3.83;;;12.00;99.90;;;;;;7366702;19;20015;-62
2023/09/25 06:06:44;;;;;;;7.43;4.35;;;12.00;99.90;;;;;;7373093;19;20014;-62
2023/09/25 06:09:15;;;;;;;7.50;3.88;;;12.10;99.90;;;;;;7366296;19;20089;-62
2023/09/25 06:11:42;;;;;;;5.95;3.88;;;12.10;99.90;;;;;;7368910;19;20023;-62
2023/09/25 06:14:11;;;;;;;9.40;3.85;;;12.10;99.90;;;;;;7362125;19;20014;-59
2023/09/25 06:16:39;;;;;;;9.95;5.68;;;12.20;99.90;;;;;;7372575;19;20017;-62
2023/09/25 06:19:06;;;;;;;7.07;3.90;;;12.20;99.90;;;;;;7366286;19;20021;-62
2023/09/25 06:21:35;;;;;;;7.35;3.88;;;12.30;99.90;;;;;;7370142;19;20039;-62
2023/09/25 06:24:22;;;;;;;6.60;3.63;;;12.40;99.90;;;;;;7366038;19;20097;-62
2023/09/25 06:26:49;;;;;;;8.23;4.13;;;12.40;99.90;;;;;;7366699;19;20011;-62
2023/09/25 06:29:15;;;;;;;6.57;3.88;;;12.50;99.90;;;;;;7367359;19;20381;-62
2023/09/25 06:31:42;;;;;;;7.30;4.22;;;12.60;99.90;;;;;;7367805;19;20556;-62
2023/09/25 06:34:10;;;;;;;6.30;3.72;;;12.60;99.90;;;;;;7366921;19;20010;-60
2023/09/25 06:36:36;;;;;;;5.50;3.60;;;12.70;99.90;;;;;;7367961;19;20010;-65
2023/09/25 06:39:09;;;;;;;6.05;3.97;;;12.70;99.90;;;;;;7363895;19;20861;-67
2023/09/25 06:41:37;;;;;;;5.70;3.72;;;12.90;99.90;;;;;;7367738;19;20082;-66
2023/09/25 06:44:07;;;;;;;8.00;4.32;;;12.90;99.90;;;;;;7364712;19;20010;-62
2023/09/25 06:46:34;;;;;;;5.35;3.58;;;13.00;99.90;;;;;;7366973;19;20029;-61
2023/09/25 06:49:01;;;;;;;5.50;3.67;;;13.10;99.90;;;;;;7363479;19;20045;-61
2023/09/25 06:51:31;;;;;;;4.40;3.40;;;13.20;99.90;;;;;;7368458;19;20027;-62
2023/09/25 06:53:57;;;;;;;6.15;3.35;;;13.30;99.90;;;;;;7368921;19;20030;-62
2023/09/25 06:56:25;;;;;;;6.70;3.60;;;13.30;99.90;;;;;;7366991;19;20027;-61
2023/09/25 06:58:52;;;;;;;8.02;5.30;;;13.50;99.90;;;;;;7368382;19;20550;-66
2023/09/25 07:01:18;;;;;;;6.90;3.33;;;13.70;99.90;;;;;;7372107;19;20024;-66
2023/09/25 07:03:45;;;;;;;7.47;3.28;;;13.90;99.90;;;;;;7372163;19;20028;-66
2023/09/25 07:06:11;;;;;;;3.88;2.42;;;14.00;99.90;;;;;;7376875;19;20545;-66
2023/09/25 07:08:38;;;;;;;6.43;3.00;;;14.20;99.90;;;;;;7375266;19;20014;-65
2023/09/25 07:11:04;;;;;;;6.43;2.97;;;14.30;99.90;;;;;;7374710;19;20206;-66
2023/09/25 07:13:32;;;;;;;5.32;3.20;;;14.50;99.90;;;;;;7372940;19;20029;-62
2023/09/25 07:16:06;;;;;;;6.85;3.03;;;14.70;99.90;;;;;;7375285;19;20617;-66
2023/09/25 07:18:32;;;;;;;8.63;3.30;;;14.90;99.90;;;;;;7370836;19;20121;-66
2023/09/25 07:20:58;;;;;;;5.82;2.80;;;15.00;99.90;;;;;;7375302;19;20078;-62
2023/09/25 07:23:25;;;;;;;6.22;2.78;;;15.10;99.90;;;;;;7371173;19;20106;-62
2023/09/25 07:26:07;;;;;;;5.90;2.85;;;15.20;99.90;;;;;;7369737;19;20466;-62
2023/09/25 07:28:34;;;;;;;6.05;3.30;;;15.30;99.90;;;;;;7374732;19;20006;-66
2023/09/25 07:31:05;;;;;;;4.38;2.50;;;15.50;99.90;;;;;;7377493;19;20037;-61
2023/09/25 07:33:32;;;;;;;6.40;3.35;;;15.60;99.90;;;;;;7370506;19;20014;-62
2023/09/25 07:35:59;;;;;;;4.53;2.70;;;15.50;99.90;;;;;;7376784;19;20085;-62
2023/09/25 07:38:26;;;;;;;4.25;2.80;;;15.60;99.90;;;;;;7369398;19;20015;-62
2023/09/25 07:40:52;;;;;;;6.18;3.90;;;15.70;99.90;;;;;;7375257;19;20449;-62
2023/09/25 07:43:23;;;;;;;7.05;4.50;;;15.80;99.90;;;;;;7370266;19;20018;-62
2023/09/25 07:45:52;;;;;;;4.63;2.85;;;15.90;99.90;;;;;;7375932;19;20022;-60
2023/09/25 07:48:19;;;;;;;5.00;2.70;;;16.10;99.90;;;;;;7372906;19;20098;-61
2023/09/25 07:50:45;;;;;;;4.75;2.97;;;16.20;99.90;;;;;;7374249;19;20030;-62
2023/09/25 07:53:12;;;;;;;5.10;2.85;;;16.30;99.90;;;;;;7372893;19;20022;-61
2023/09/25 07:55:40;;;;;;;6.45;2.80;;;16.70;99.90;;;;;;7374831;19;20820;-62
2023/09/25 07:58:09;;;;;;;4.97;2.53;;;16.80;99.90;;;;;;7370758;19;20026;-62
2023/09/25 08:00:39;;;;;;;5.30;3.60;;;17.00;99.90;;;;;;7367678;19;20049;-68
2023/09/25 08:03:06;;;;;;;4.82;2.47;;;17.40;99.90;;;;;;7370314;19;20043;-65
2023/09/25 08:05:34;;;;;;;5.72;2.80;;;17.50;99.90;;;;;;7371350;19;20643;-66
2023/09/25 08:08:00;;;;;;;4.25;2.45;;;17.70;99.90;;;;;;7376181;19;20030;-65
2023/09/25 08:10:27;;;;;;;5.07;2.28;;;17.90;99.90;;;;;;7371413;19;20018;-65
2023/09/25 08:12:54;;;;;;;5.13;2.42;;;18.10;99.90;;;;;;7375536;19;20015;-65
2023/09/25 08:15:21;;;;;;;4.95;2.67;;;18.30;99.90;;;;;;7369130;19;20018;-66
2023/09/25 08:17:48;;;;;;;4.78;2.45;;;18.60;99.90;;;;;;7371604;19;20477;-65
2023/09/25 08:20:18;;;;;;;5.10;2.17;;;18.70;99.90;;;;;;7371891;19;20018;-60
2023/09/25 08:22:45;;;;;;;6.63;3.30;;;18.70;99.90;;;;;;7374874;19;20035;-62
2023/09/25 08:25:11;;;;;;;5.85;2.55;;;18.50;99.90;;;;;;7370768;19;20010;-62
2023/09/25 08:27:58;;;;;;;5.35;2.25;;;18.20;99.90;;;;;;7361075;19;20528;-62
2023/09/25 08:30:24;;;;;;;7.03;3.38;;;18.10;99.90;;;;;;7363772;19;20112;-62
2023/09/25 08:32:52;;;;;;;5.75;2.95;;;17.90;99.90;;;;;;7368601;19;20038;-61
2023/09/25 08:35:18;;;;;;;4.00;2.33;;;17.80;99.90;;;;;;7369468;19;20011;-61
2023/09/25 08:37:44;;;;;;;5.53;2.45;;;17.80;99.90;;;;;;7371252;19;20015;-61
2023/09/25 08:40:11;;;;;;;4.65;2.55;;;17.90;99.90;;;;;;7367130;19;20572;-61
2023/09/25 08:42:37;;;;;;;3.70;1.92;;;17.90;99.90;;;;;;7370208;19;20527;-61
2023/09/25 08:45:05;;;;;;;4.50;2.45;;;18.00;99.90;;;;;;7370064;19;20073;-61
2023/09/25 08:47:34;;;;;;;4.32;2.05;;;18.20;99.90;;;;;;7372175;19;20584;-62
2023/09/25 08:50:01;;;;;;;6.00;2.88;;;18.30;99.90;;;;;;7370716;19;20020;-61
2023/09/25 08:52:28;;;;;;;6.32;3.67;;;18.60;99.90;;;;;;7369505;19;20010;-62
2023/09/25 08:54:54;;;;;;;6.88;2.53;;;18.70;99.90;;;;;;7368218;19;20011;-61
2023/09/25 08:57:22;;;;;;;6.90;3.42;;;18.90;99.90;;;;;;7367554;19;20401;-66
2023/09/25 08:59:50;;;;;;;7.55;3.05;;;19.30;99.90;;;;;;7368486;19;20090;-67
2023/09/25 09:02:17;;;;;;;5.20;2.10;;;19.60;99.90;;;;;;7367718;19;20458;-65
2023/09/25 09:04:45;;;;;;;4.70;3.10;;;19.90;99.90;;;;;;7368389;19;20026;-63
2023/09/25 09:07:11;;;;;;;6.28;2.15;;;20.50;99.90;;;;;;7370214;19;20014;-62
2023/09/25 09:09:39;;;;;;;5.20;3.20;;;21.30;99.90;;;;;;7369390;19;20329;-61
2023/09/25 09:12:07;;;;;;;4.78;2.15;;;21.80;99.90;;;;;;7372470;19;20528;-62
2023/09/25 09:14:39;;;;;;;5.72;2.28;;;22.10;99.90;;;;;;7369541;19;20024;-66
2023/09/25 09:17:07;;;;;;;5.57;3.60;;;21.90;99.90;;;;;;7370501;19;20037;-66
2023/09/25 09:19:53;;;;;;;4.15;2.33;;;21.60;99.90;;;;;;7365652;19;20018;-64
2023/09/25 09:22:21;;;;;;;3.60;2.03;;;21.00;99.90;;;;;;7366585;19;20504;-66
2023/09/25 09:24:51;;;;;;;5.22;2.28;;;20.70;99.90;;;;;;7365066;19;20011;-65
2023/09/25 09:27:20;;;;;;;4.70;2.28;;;20.70;99.90;;;;;;7367640;19;20029;-65
2023/09/25 09:29:52;;;;;;;4.32;2.50;;;20.60;99.90;;;;;;7368944;19;20029;-66
2023/09/25 09:32:18;;;;;;;4.65;2.35;;;20.70;99.90;;;;;;7372798;19;20040;-66
2023/09/25 09:34:46;;;;;;;6.15;3.80;;;21.20;99.90;;;;;;7368259;19;20014;-62
2023/09/25 09:37:13;;;;;;;4.32;2.13;;;21.70;99.10;;;;;;7366521;19;20014;-61
2023/09/25 09:39:45;;;;;;;7.82;3.28;;;21.70;99.90;;;;;;7366922;19;20074;-61
2023/09/25 09:42:11;;;;;;;6.40;2.63;;;22.20;99.80;;;;;;7373273;19;20033;-61
2023/09/25 09:44:43;;;;;;;5.43;2.70;;;22.40;99.50;;;;;;7362551;19;20596;-61
2023/09/25 09:47:09;;;;;;;6.00;2.97;;;23.10;97.70;;;;;;7371072;19;20011;-61
2023/09/25 09:49:37;;;;;;;7.18;2.78;;;22.90;96.80;;;;;;7366170;19;20477;-61
2023/09/25 09:52:04;;;;;;;5.03;2.00;;;23.00;96.70;;;;;;7370382;19;20030;-61
2023/09/25 09:54:35;;;;;;;6.63;2.47;;;22.60;95.40;;;;;;7365637;19;20500;-62
2023/09/25 09:57:02;;;;;;;7.53;3.67;;;23.20;94.70;;;;;;7370098;19;20111;-62
2023/09/25 09:59:49;;;;;;;8.50;2.20;;;23.50;94.00;;;;;;7367125;19;20014;-61
2023/09/25 10:02:16;;;;;;;4.90;2.17;;;23.70;94.80;;;;;;7369230;19;20573;-61
2023/09/25 10:04:44;;;;;;;4.50;2.30;;;24.00;94.00;;;;;;7367150;19;20031;-66
2023/09/25 10:07:10;;;;;;;5.18;2.22;;;24.50;94.00;;;;;;7368656;19;20014;-66
2023/09/25 10:09:37;;;;;;;3.95;1.90;;;24.50;92.90;;;;;;7370512;19;20657;-66
2023/09/25 10:12:04;;;;;;;4.15;2.13;;;24.70;91.90;;;;;;7367624;19;20018;-65
2023/09/25 10:14:38;;;;;;;6.63;3.50;;;24.50;90.80;;;;;;7366024;19;20520;-64
2023/09/25 10:17:06;;;;;;;4.30;1.88;;;24.80;88.80;;;;;;7367934;19;20015;-65
2023/09/25 10:19:47;;;;;;;5.40;2.45;;;25.00;88.70;;;;;;7367291;19;20467;-65
2023/09/25 10:22:20;;;;;;;5.15;2.35;;;24.50;84.80;;;;;;7362625;19;20015;-65
2023/09/25 10:24:59;;;;;;;4.10;2.17;;;24.90;85.80;;;;;;7370035;19;20022;-65
2023/09/25 10:27:28;;;;;;;;;;;25.00;86.20;;;;;;7366306;19;21264;-66
2023/09/25 10:30:14;;;;;;;4.97;1.90;;;24.60;84.50;;;;;;7369744;19;20030;-66
2023/09/25 10:32:42;;;;;;;3.95;2.08;;;24.60;82.20;;;;;;7370413;19;20347;-66
2023/09/25 10:35:40;;;;;;;3.30;1.90;;;24.80;85.30;;;;;;7368364;19;20101;-61
2023/09/25 10:38:21;;;;;;;3.65;1.85;;;24.60;84.00;;;;;;7373823;19;20082;-61
2023/09/25 10:40:50;;;;;;;3.90;2.25;;;24.60;84.80;;;;;;7373166;19;20020;-61
2023/09/25 10:43:21;;;;;;;4.03;2.00;;;24.70;84.90;;;;;;7372050;19;20500;-61
2023/09/25 10:45:49;;;;;;;4.90;2.15;;;25.00;84.50;;;;;;7374115;19;20038;-61
2023/09/25 10:48:16;;;;;;;5.57;2.50;;;25.00;83.60;;;;;;7374543;19;20049;-62
2023/09/25 10:50:43;;;;;;;3.92;2.25;;;25.30;83.90;;;;;;7379279;19;20017;-62
2023/09/25 10:53:11;;;;;;;5.00;2.33;;;25.40;82.40;;;;;;7376550;19;20086;-62
2023/09/25 10:55:38;;;;;;;4.90;1.77;;;25.60;83.70;;;;;;7372733;19;20006;-62
2023/09/25 10:58:06;;;;;;;3.60;1.92;;;25.30;80.60;;;;;;7374406;19;20119;-61
2023/09/25 11:00:34;;;;;;;5.35;1.83;;;25.10;80.90;;;;;;7374704;19;20019;-60
2023/09/25 11:03:02;;;;;;;5.03;2.13;;;25.40;81.50;;;;;;7369488;19;20018;-62
2023/09/25 11:05:33;;;;;;;4.38;1.70;;;25.20;80.10;;;;;;7373421;19;20025;-62
2023/09/25 11:08:00;;;;;;;3.72;2.20;;;24.80;79.30;;;;;;7375418;19;20018;-61
2023/09/25 11:10:30;;;;;;;4.00;1.70;;;24.60;77.70;;;;;;7372792;19;20078;-61
2023/09/25 11:12:57;;;;;;;3.78;1.75;;;24.80;78.30;;;;;;7372716;19;20047;-65
2023/09/25 11:15:25;;;;;;;2.95;1.73;;;24.80;77.90;;;;;;7372442;19;20394;-62
2023/09/25 11:17:52;;;;;;;7.00;1.98;;;24.90;78.10;;;;;;7372148;19;20520;-66
2023/09/25 11:20:18;;;;;;;3.70;2.25;;;25.20;78.80;;;;;;7375842;19;20051;-61
2023/09/25 11:22:48;;;;;;;3.65;2.20;;;25.80;79.30;;;;;;7373303;19;20021;-61
2023/09/25 11:25:16;;;;;;;6.10;2.50;;;25.80;74.50;;;;;;7369938;19;20018;-67
2023/09/25 11:27:56;;;;;;;7.22;1.92;;;25.80;75.60;;;;;;7374680;19;20573;-66
2023/09/25 11:30:27;;;;;;;3.50;1.70;;;26.10;75.40;;;;;;7369908;19;20011;-63
2023/09/25 11:32:53;;;;;;;3.72;1.88;;;26.50;74.10;;;;;;7376771;19;20025;-66
2023/09/25 11:35:20;;;;;;;4.57;2.05;;;26.50;73.10;;;;;;7372649;19;20376;-67
2023/09/25 11:38:17;;;;;;;4.93;2.00;;;26.80;73.20;;;;;;7376119;19;20018;-66
2023/09/25 11:40:44;;;;;;;5.88;2.05;;;27.00;71.20;;;;;;7370778;19;20576;-66
2023/09/25 11:43:12;;;;;;;6.32;2.42;;;27.20;72.30;;;;;;7370380;19;20052;-66
2023/09/25 11:45:42;;;;;;;4.40;2.10;;;27.00;70.60;;;;;;7372481;19;20022;-62
2023/09/25 11:48:16;;;;;;;4.33;2.70;;;27.40;70.10;;;;;;7375515;19;20018;-62
2023/09/25 11:50:42;;;;;;;4.65;2.30;;;27.30;68.10;;;;;;7373137;19;20010;-62
2023/09/25 11:53:09;;;;;;;3.85;2.00;;;27.40;69.50;;;;;;7371784;19;20060;-61
2023/09/25 11:55:35;;;;;;;4.72;1.80;;;27.50;69.70;;;;;;7373658;19;20007;-61
2023/09/25 11:58:05;;;;;;;2.83;1.60;;;27.70;68.10;;;;;;7375544;19;20509;-66
2023/09/25 12:00:32;;;;;;;3.85;1.83;;;27.80;68.10;;;;;;7377287;19;20011;-66
2023/09/25 12:02:58;;;;;;;4.40;2.10;;;27.90;68.20;;;;;;7373306;19;20455;-64
2023/09/25 12:05:27;;;;;;;3.97;1.60;;;28.40;68.20;;;;;;7375633;19;20415;-63
2023/09/25 12:07:55;;;;;;;5.00;1.83;;;28.80;67.50;;;;;;7374197;19;20489;-67
2023/09/25 12:10:22;;;;;;;4.85;1.83;;;28.30;66.50;;;;;;7374457;19;20018;-66
2023/09/25 12:12:48;;;;;;;3.05;2.15;;;28.10;66.70;;;;;;7373176;19;20621;-67
2023/09/25 12:15:16;;;;;;;4.53;2.03;;;27.70;66.50;;;;;;7375539;19;20359;-67
2023/09/25 12:17:43;;;;;;;4.30;1.98;;;28.00;66.40;;;;;;7371838;19;20369;-66
2023/09/25 12:20:17;;;;;;;12.43;10.80;;;28.30;66.80;;;;;;7375840;19;20525;-67
2023/09/25 12:22:45;;;;;;;3.58;1.85;;;28.30;67.00;;;;;;7371858;19;20520;-66
2023/09/25 12:25:16;;;;;;;4.10;1.92;;;27.90;65.40;;;;;;7372216;19;20582;-68
2023/09/25 12:27:43;;;;;;;4.35;1.88;;;28.00;66.40;;;;;;7372224;19;20010;-67
2023/09/25 12:30:15;;;;;;;3.63;1.80;;;27.10;67.10;;;;;;7374078;19;20029;-67
2023/09/25 12:32:48;;;;;;;5.55;2.95;;;26.90;68.30;;;;;;7372662;19;20014;-67
2023/09/25 12:35:16;;;;;;;3.92;1.90;;;26.70;69.70;;;;;;7370655;19;20105;-67
2023/09/25 12:37:44;;;;;;;3.45;1.60;;;26.30;69.30;;;;;;7374172;19;20894;-65
2023/09/25 12:40:21;;;;;;;3.08;1.88;;;26.00;70.40;;;;;;7369628;19;21630;-66
2023/09/25 12:42:47;;;;;;;4.13;1.88;;;25.60;70.10;;;;;;7371901;19;20035;-66
2023/09/25 12:45:13;;;;;;;4.25;1.67;;;25.70;70.80;;;;;;7370458;19;20710;-67
2023/09/25 12:47:40;;;;;;;3.20;1.92;;;25.50;70.90;;;;;;7371117;19;20014;-66
2023/09/25 12:50:08;;;;;;;3.67;1.92;;;25.50;72.30;;;;;;7369257;19;20441;-67
2023/09/25 12:52:34;;;;;;;4.75;1.92;;;25.20;74.00;;;;;;7367556;19;20036;-66
2023/09/25 12:55:02;;;;;;;6.03;1.90;;;24.90;71.40;;;;;;7373642;19;20014;-67
2023/09/25 12:57:30;;;;;;;3.53;1.23;;;24.50;71.80;;;;;;7368268;19;20019;-67